sensor_id;sensor_type;location;lat;lon;timestamp;P1;durP1;ratioP1;P2;durP2;ratioP2
72037;SDS011;59900;50.788;12.904;2023-11-21T00:00:50;5.47;;;2.00;;
72037;SDS011;59900;50.788;12.904;2023-11-21T00:03:16;4.10;;;2.00;;
72037;SDS011;59900;50.788;12.904;2023-11-21T00:05:41;7.60;;;2.50;;
72037;SDS011;59900;50.788;12.904;2023-11-21T00:08:07;5.37;;;2.00;;
72037;SDS011;59900;50.788;12.904;2023-11-21T00:10:32;5.07;;;2.17;;
72037;SDS011;59900;50.788;12.904;2023-11-21T00:12:58;5.82;;;1.98;;
72037;SDS011;59900;50.788;12.904;2023-11-21T00:15:23;6.33;;;1.87;;
72037;SDS011;59900;50.788;12.904;2023-11-21T00:17:48;6.63;;;2.40;;
72037;SDS011;59900;50.788;12.904;2023-11-21T00:20:14;3.50;;;1.88;;
72037;SDS011;59900;50.788;12.904;2023-11-21T00:22:39;4.73;;;2.60;;
72037;SDS011;59900;50.788;12.904;2023-11-21T00:25:05;5.87;;;2.23;;
72037;SDS011;59900;50.788;12.904;2023-11-21T00:27:33;5.13;;;2.08;;
72037;SDS011;59900;50.788;12.904;2023-11-21T00:30:00;5.13;;;2.13;;
72037;SDS011;59900;50.788;12.904;2023-11-21T00:32:25;5.53;;;2.50;;
72037;SDS011;59900;50.788;12.904;2023-11-21T00:34:50;6.10;;;2.33;;
72037;SDS011;59900;50.788;12.904;2023-11-21T00:37:15;4.93;;;2.30;;
72037;SDS011;59900;50.788;12.904;2023-11-21T00:39:41;5.67;;;2.17;;
72037;SDS011;59900;50.788;12.904;2023-11-21T00:42:06;5.10;;;2.20;;
72037;SDS011;59900;50.788;12.904;2023-11-21T00:44:32;6.80;;;2.40;;
72037;SDS011;59900;50.788;12.904;2023-11-21T00:46:59;4.20;;;1.67;;
72037;SDS011;59900;50.788;12.904;2023-11-21T00:49:24;5.43;;;2.23;;
72037;SDS011;59900;50.788;12.904;2023-11-21T00:51:49;4.23;;;2.00;;
72037;SDS011;59900;50.788;12.904;2023-11-21T00:54:14;5.70;;;2.33;;
72037;SDS011;59900;50.788;12.904;2023-11-21T00:56:42;6.97;;;2.20;;
72037;SDS011;59900;50.788;12.904;2023-11-21T00:59:07;4.87;;;2.10;;
72037;SDS011;59900;50.788;12.904;2023-11-21T01:01:32;9.27;;;2.50;;
72037;SDS011;59900;50.788;12.904;2023-11-21T01:03:58;4.33;;;2.03;;
72037;SDS011;59900;50.788;12.904;2023-11-21T01:06:23;4.80;;;2.30;;
72037;SDS011;59900;50.788;12.904;2023-11-21T01:08:48;5.00;;;2.23;;
72037;SDS011;59900;50.788;12.904;2023-11-21T01:11:13;4.73;;;1.93;;
72037;SDS011;59900;50.788;12.904;2023-11-21T01:13:39;5.10;;;2.73;;
72037;SDS011;59900;50.788;12.904;2023-11-21T01:16:05;7.10;;;1.93;;
72037;SDS011;59900;50.788;12.904;2023-11-21T01:18:34;4.35;;;2.35;;
72037;SDS011;59900;50.788;12.904;2023-11-21T01:21:00;6.57;;;2.08;;
72037;SDS011;59900;50.788;12.904;2023-11-21T01:23:26;5.57;;;1.93;;
72037;SDS011;59900;50.788;12.904;2023-11-21T01:25:52;4.43;;;1.67;;
72037;SDS011;59900;50.788;12.904;2023-11-21T01:28:17;4.67;;;2.10;;
72037;SDS011;59900;50.788;12.904;2023-11-21T01:30:42;7.03;;;2.17;;
72037;SDS011;59900;50.788;12.904;2023-11-21T01:33:09;5.25;;;2.05;;
72037;SDS011;59900;50.788;12.904;2023-11-21T01:35:34;4.27;;;2.13;;
72037;SDS011;59900;50.788;12.904;2023-11-21T01:37:59;5.23;;;1.90;;
72037;SDS011;59900;50.788;12.904;2023-11-21T01:40:25;7.50;;;2.30;;
72037;SDS011;59900;50.788;12.904;2023-11-21T01:42:50;5.23;;;2.43;;
72037;SDS011;59900;50.788;12.904;2023-11-21T01:45:15;6.10;;;2.17;;
72037;SDS011;59900;50.788;12.904;2023-11-21T01:47:41;5.80;;;1.90;;
72037;SDS011;59900;50.788;12.904;2023-11-21T01:50:07;4.33;;;2.17;;
72037;SDS011;59900;50.788;12.904;2023-11-21T01:52:34;5.60;;;1.85;;
72037;SDS011;59900;50.788;12.904;2023-11-21T01:55:00;4.57;;;2.08;;
72037;SDS011;59900;50.788;12.904;2023-11-21T01:57:26;6.03;;;2.43;;
72037;SDS011;59900;50.788;12.904;2023-11-21T01:59:52;4.75;;;1.80;;
72037;SDS011;59900;50.788;12.904;2023-11-21T02:02:19;5.13;;;1.95;;
72037;SDS011;59900;50.788;12.904;2023-11-21T02:04:45;5.27;;;2.13;;
72037;SDS011;59900;50.788;12.904;2023-11-21T02:07:10;3.73;;;1.93;;
72037;SDS011;59900;50.788;12.904;2023-11-21T02:09:36;4.63;;;1.70;;
72037;SDS011;59900;50.788;12.904;2023-11-21T02:12:03;5.85;;;2.00;;
72037;SDS011;59900;50.788;12.904;2023-11-21T02:14:29;5.20;;;2.00;;
72037;SDS011;59900;50.788;12.904;2023-11-21T02:16:56;5.78;;;2.15;;
72037;SDS011;59900;50.788;12.904;2023-11-21T02:19:25;5.22;;;1.92;;
72037;SDS011;59900;50.788;12.904;2023-11-21T02:21:51;4.93;;;1.80;;
72037;SDS011;59900;50.788;12.904;2023-11-21T02:24:21;4.13;;;1.77;;
72037;SDS011;59900;50.788;12.904;2023-11-21T02:26:50;4.78;;;2.10;;
72037;SDS011;59900;50.788;12.904;2023-11-21T02:29:17;6.65;;;2.05;;
72037;SDS011;59900;50.788;12.904;2023-11-21T02:31:43;6.30;;;1.90;;
72037;SDS011;59900;50.788;12.904;2023-11-21T02:34:15;5.37;;;2.00;;
72037;SDS011;59900;50.788;12.904;2023-11-21T02:36:41;5.90;;;1.98;;
72037;SDS011;59900;50.788;12.904;2023-11-21T02:39:07;5.35;;;2.10;;
72037;SDS011;59900;50.788;12.904;2023-11-21T02:41:33;4.22;;;1.70;;
72037;SDS011;59900;50.788;12.904;2023-11-21T02:43:59;4.03;;;2.13;;
72037;SDS011;59900;50.788;12.904;2023-11-21T02:46:25;4.93;;;1.80;;
72037;SDS011;59900;50.788;12.904;2023-11-21T02:48:50;6.63;;;2.20;;
72037;SDS011;59900;50.788;12.904;2023-11-21T02:51:16;6.00;;;1.95;;
72037;SDS011;59900;50.788;12.904;2023-11-21T02:53:41;4.63;;;2.07;;
72037;SDS011;59900;50.788;12.904;2023-11-21T02:56:06;4.90;;;1.90;;
72037;SDS011;59900;50.788;12.904;2023-11-21T02:58:32;6.63;;;2.30;;
72037;SDS011;59900;50.788;12.904;2023-11-21T03:00:57;4.07;;;1.90;;
72037;SDS011;59900;50.788;12.904;2023-11-21T03:03:22;4.33;;;1.70;;
72037;SDS011;59900;50.788;12.904;2023-11-21T03:05:49;5.93;;;2.10;;
72037;SDS011;59900;50.788;12.904;2023-11-21T03:08:14;5.37;;;2.00;;
72037;SDS011;59900;50.788;12.904;2023-11-21T03:10:40;4.77;;;1.97;;
72037;SDS011;59900;50.788;12.904;2023-11-21T03:13:05;5.70;;;1.83;;
72037;SDS011;59900;50.788;12.904;2023-11-21T03:15:30;10.00;;;2.78;;
72037;SDS011;59900;50.788;12.904;2023-11-21T03:17:57;3.33;;;1.93;;
72037;SDS011;59900;50.788;12.904;2023-11-21T03:20:22;6.27;;;2.20;;
72037;SDS011;59900;50.788;12.904;2023-11-21T03:22:48;5.77;;;1.87;;
72037;SDS011;59900;50.788;12.904;2023-11-21T03:25:13;6.73;;;2.33;;
72037;SDS011;59900;50.788;12.904;2023-11-21T03:27:38;5.80;;;2.13;;
72037;SDS011;59900;50.788;12.904;2023-11-21T03:30:04;5.47;;;2.00;;
72037;SDS011;59900;50.788;12.904;2023-11-21T03:32:31;6.00;;;2.15;;
72037;SDS011;59900;50.788;12.904;2023-11-21T03:34:58;4.83;;;2.13;;
72037;SDS011;59900;50.788;12.904;2023-11-21T03:37:23;6.78;;;2.13;;
72037;SDS011;59900;50.788;12.904;2023-11-21T03:39:52;4.90;;;2.20;;
72037;SDS011;59900;50.788;12.904;2023-11-21T03:42:17;5.93;;;2.23;;
72037;SDS011;59900;50.788;12.904;2023-11-21T03:44:43;4.70;;;2.17;;
72037;SDS011;59900;50.788;12.904;2023-11-21T03:47:08;5.30;;;2.30;;
72037;SDS011;59900;50.788;12.904;2023-11-21T03:49:33;6.17;;;2.60;;
72037;SDS011;59900;50.788;12.904;2023-11-21T03:51:59;6.13;;;2.13;;
72037;SDS011;59900;50.788;12.904;2023-11-21T03:54:24;6.37;;;2.20;;
72037;SDS011;59900;50.788;12.904;2023-11-21T03:56:49;5.37;;;2.63;;
72037;SDS011;59900;50.788;12.904;2023-11-21T03:59:14;5.07;;;2.40;;
72037;SDS011;59900;50.788;12.904;2023-11-21T04:01:40;6.07;;;2.55;;
72037;SDS011;59900;50.788;12.904;2023-11-21T04:04:05;5.63;;;1.90;;
72037;SDS011;59900;50.788;12.904;2023-11-21T04:06:30;6.97;;;2.50;;
72037;SDS011;59900;50.788;12.904;2023-11-21T04:08:57;6.50;;;2.00;;
72037;SDS011;59900;50.788;12.904;2023-11-21T04:11:23;6.53;;;2.50;;
72037;SDS011;59900;50.788;12.904;2023-11-21T04:13:48;4.87;;;2.60;;
72037;SDS011;59900;50.788;12.904;2023-11-21T04:16:14;8.47;;;2.67;;
72037;SDS011;59900;50.788;12.904;2023-11-21T04:18:39;6.83;;;2.90;;
72037;SDS011;59900;50.788;12.904;2023-11-21T04:21:05;5.47;;;3.03;;
72037;SDS011;59900;50.788;12.904;2023-11-21T04:23:31;7.00;;;2.72;;
72037;SDS011;59900;50.788;12.904;2023-11-21T04:25:57;6.18;;;2.30;;
72037;SDS011;59900;50.788;12.904;2023-11-21T04:28:23;8.63;;;2.50;;
72037;SDS011;59900;50.788;12.904;2023-11-21T04:30:49;4.97;;;2.30;;
72037;SDS011;59900;50.788;12.904;2023-11-21T04:33:15;4.80;;;2.30;;
72037;SDS011;59900;50.788;12.904;2023-11-21T04:35:40;6.93;;;3.20;;
72037;SDS011;59900;50.788;12.904;2023-11-21T04:38:05;8.90;;;2.63;;
72037;SDS011;59900;50.788;12.904;2023-11-21T04:40:30;6.50;;;2.67;;
72037;SDS011;59900;50.788;12.904;2023-11-21T04:42:56;6.33;;;2.50;;
72037;SDS011;59900;50.788;12.904;2023-11-21T04:45:22;6.05;;;2.30;;
72037;SDS011;59900;50.788;12.904;2023-11-21T04:47:47;4.97;;;2.60;;
72037;SDS011;59900;50.788;12.904;2023-11-21T04:50:13;6.67;;;2.73;;
72037;SDS011;59900;50.788;12.904;2023-11-21T04:52:38;6.28;;;2.83;;
72037;SDS011;59900;50.788;12.904;2023-11-21T04:55:04;5.50;;;3.13;;
72037;SDS011;59900;50.788;12.904;2023-11-21T04:57:31;6.75;;;3.50;;
72037;SDS011;59900;50.788;12.904;2023-11-21T04:59:57;7.03;;;2.40;;
72037;SDS011;59900;50.788;12.904;2023-11-21T05:02:22;5.30;;;2.73;;
72037;SDS011;59900;50.788;12.904;2023-11-21T05:04:47;5.60;;;2.50;;
72037;SDS011;59900;50.788;12.904;2023-11-21T05:07:13;6.83;;;2.70;;
72037;SDS011;59900;50.788;12.904;2023-11-21T05:09:44;6.13;;;2.90;;
72037;SDS011;59900;50.788;12.904;2023-11-21T05:12:11;5.63;;;2.85;;
72037;SDS011;59900;50.788;12.904;2023-11-21T05:14:37;5.90;;;2.75;;
72037;SDS011;59900;50.788;12.904;2023-11-21T05:17:02;8.20;;;3.73;;
72037;SDS011;59900;50.788;12.904;2023-11-21T05:19:29;9.10;;;2.70;;
72037;SDS011;59900;50.788;12.904;2023-11-21T05:21:54;7.17;;;3.10;;
72037;SDS011;59900;50.788;12.904;2023-11-21T05:24:19;9.30;;;3.70;;
72037;SDS011;59900;50.788;12.904;2023-11-21T05:26:45;13.10;;;3.07;;
72037;SDS011;59900;50.788;12.904;2023-11-21T05:29:10;5.33;;;2.83;;
72037;SDS011;59900;50.788;12.904;2023-11-21T05:31:36;6.03;;;2.80;;
72037;SDS011;59900;50.788;12.904;2023-11-21T05:34:01;7.00;;;3.22;;
72037;SDS011;59900;50.788;12.904;2023-11-21T05:36:26;8.53;;;3.13;;
72037;SDS011;59900;50.788;12.904;2023-11-21T05:38:52;9.40;;;2.77;;
72037;SDS011;59900;50.788;12.904;2023-11-21T05:41:17;7.40;;;3.30;;
72037;SDS011;59900;50.788;12.904;2023-11-21T05:43:42;7.47;;;3.77;;
72037;SDS011;59900;50.788;12.904;2023-11-21T05:46:08;9.52;;;4.15;;
72037;SDS011;59900;50.788;12.904;2023-11-21T05:48:34;9.67;;;3.90;;
72037;SDS011;59900;50.788;12.904;2023-11-21T05:51:01;9.57;;;4.13;;
72037;SDS011;59900;50.788;12.904;2023-11-21T05:53:27;8.50;;;3.95;;
72037;SDS011;59900;50.788;12.904;2023-11-21T05:55:53;13.83;;;4.43;;
72037;SDS011;59900;50.788;12.904;2023-11-21T05:58:18;8.30;;;3.90;;
72037;SDS011;59900;50.788;12.904;2023-11-21T06:00:43;8.27;;;3.87;;
72037;SDS011;59900;50.788;12.904;2023-11-21T06:03:09;10.27;;;3.87;;
72037;SDS011;59900;50.788;12.904;2023-11-21T06:05:34;7.97;;;3.27;;
72037;SDS011;59900;50.788;12.904;2023-11-21T06:08:00;6.38;;;3.20;;
72037;SDS011;59900;50.788;12.904;2023-11-21T06:10:25;7.43;;;3.50;;
72037;SDS011;59900;50.788;12.904;2023-11-21T06:12:51;6.72;;;3.05;;
72037;SDS011;59900;50.788;12.904;2023-11-21T06:15:18;7.67;;;3.80;;
72037;SDS011;59900;50.788;12.904;2023-11-21T06:17:45;5.80;;;3.05;;
72037;SDS011;59900;50.788;12.904;2023-11-21T06:20:14;8.13;;;3.20;;
72037;SDS011;59900;50.788;12.904;2023-11-21T06:22:41;7.57;;;3.10;;
72037;SDS011;59900;50.788;12.904;2023-11-21T06:25:08;7.20;;;3.10;;
72037;SDS011;59900;50.788;12.904;2023-11-21T06:27:34;6.63;;;3.17;;
72037;SDS011;59900;50.788;12.904;2023-11-21T06:30:02;8.13;;;3.65;;
72037;SDS011;59900;50.788;12.904;2023-11-21T06:32:27;7.32;;;3.30;;
72037;SDS011;59900;50.788;12.904;2023-11-21T06:34:54;7.72;;;3.40;;
72037;SDS011;59900;50.788;12.904;2023-11-21T06:37:29;7.17;;;3.63;;
72037;SDS011;59900;50.788;12.904;2023-11-21T06:39:55;7.35;;;3.70;;
72037;SDS011;59900;50.788;12.904;2023-11-21T06:42:21;10.10;;;3.28;;
72037;SDS011;59900;50.788;12.904;2023-11-21T06:44:47;7.50;;;3.67;;
72037;SDS011;59900;50.788;12.904;2023-11-21T06:47:13;6.27;;;3.10;;
72037;SDS011;59900;50.788;12.904;2023-11-21T06:49:40;6.60;;;3.67;;
72037;SDS011;59900;50.788;12.904;2023-11-21T06:52:07;8.25;;;3.40;;
72037;SDS011;59900;50.788;12.904;2023-11-21T06:54:33;8.53;;;3.80;;
72037;SDS011;59900;50.788;12.904;2023-11-21T06:56:58;9.50;;;3.83;;
72037;SDS011;59900;50.788;12.904;2023-11-21T06:59:24;7.33;;;3.20;;
72037;SDS011;59900;50.788;12.904;2023-11-21T07:01:49;7.37;;;3.47;;
72037;SDS011;59900;50.788;12.904;2023-11-21T07:04:15;8.43;;;3.50;;
72037;SDS011;59900;50.788;12.904;2023-11-21T07:06:40;9.33;;;3.30;;
72037;SDS011;59900;50.788;12.904;2023-11-21T07:09:06;8.18;;;3.50;;
72037;SDS011;59900;50.788;12.904;2023-11-21T07:11:33;11.23;;;3.25;;
72037;SDS011;59900;50.788;12.904;2023-11-21T07:13:58;7.77;;;3.37;;
72037;SDS011;59900;50.788;12.904;2023-11-21T07:16:24;7.43;;;3.90;;
72037;SDS011;59900;50.788;12.904;2023-11-21T07:18:50;7.75;;;3.67;;
72037;SDS011;59900;50.788;12.904;2023-11-21T07:21:15;8.40;;;3.60;;
72037;SDS011;59900;50.788;12.904;2023-11-21T07:23:41;8.93;;;3.47;;
72037;SDS011;59900;50.788;12.904;2023-11-21T07:26:06;9.20;;;3.80;;
72037;SDS011;59900;50.788;12.904;2023-11-21T07:28:34;10.07;;;3.47;;
72037;SDS011;59900;50.788;12.904;2023-11-21T07:31:00;9.20;;;3.75;;
72037;SDS011;59900;50.788;12.904;2023-11-21T07:33:25;8.50;;;3.93;;
72037;SDS011;59900;50.788;12.904;2023-11-21T07:35:51;13.07;;;4.70;;
72037;SDS011;59900;50.788;12.904;2023-11-21T07:38:16;7.85;;;3.50;;
72037;SDS011;59900;50.788;12.904;2023-11-21T07:40:42;9.52;;;3.92;;
72037;SDS011;59900;50.788;12.904;2023-11-21T07:43:08;9.60;;;3.83;;
72037;SDS011;59900;50.788;12.904;2023-11-21T07:45:33;11.15;;;4.10;;
72037;SDS011;59900;50.788;12.904;2023-11-21T07:47:59;7.90;;;3.97;;
72037;SDS011;59900;50.788;12.904;2023-11-21T07:50:25;8.30;;;4.40;;
72037;SDS011;59900;50.788;12.904;2023-11-21T07:52:51;10.82;;;4.25;;
72037;SDS011;59900;50.788;12.904;2023-11-21T07:55:17;9.13;;;4.33;;
72037;SDS011;59900;50.788;12.904;2023-11-21T07:57:42;13.03;;;4.20;;
72037;SDS011;59900;50.788;12.904;2023-11-21T08:00:07;11.10;;;4.60;;
72037;SDS011;59900;50.788;12.904;2023-11-21T08:02:34;10.30;;;4.10;;
72037;SDS011;59900;50.788;12.904;2023-11-21T08:04:59;9.57;;;4.60;;
72037;SDS011;59900;50.788;12.904;2023-11-21T08:07:25;9.60;;;3.67;;
72037;SDS011;59900;50.788;12.904;2023-11-21T08:09:51;9.77;;;4.75;;
72037;SDS011;59900;50.788;12.904;2023-11-21T08:12:16;8.57;;;4.67;;
72037;SDS011;59900;50.788;12.904;2023-11-21T08:14:42;12.70;;;4.40;;
72037;SDS011;59900;50.788;12.904;2023-11-21T08:17:08;9.48;;;3.90;;
72037;SDS011;59900;50.788;12.904;2023-11-21T08:19:35;9.15;;;4.72;;
72037;SDS011;59900;50.788;12.904;2023-11-21T08:22:01;9.18;;;4.18;;
72037;SDS011;59900;50.788;12.904;2023-11-21T08:24:26;10.03;;;4.50;;
72037;SDS011;59900;50.788;12.904;2023-11-21T08:26:52;9.75;;;4.35;;
72037;SDS011;59900;50.788;12.904;2023-11-21T08:29:19;10.63;;;4.40;;
72037;SDS011;59900;50.788;12.904;2023-11-21T08:31:44;11.15;;;4.20;;
72037;SDS011;59900;50.788;12.904;2023-11-21T08:34:11;10.17;;;3.90;;
72037;SDS011;59900;50.788;12.904;2023-11-21T08:36:41;9.65;;;5.15;;
72037;SDS011;59900;50.788;12.904;2023-11-21T08:39:09;10.98;;;5.10;;
72037;SDS011;59900;50.788;12.904;2023-11-21T08:41:38;10.65;;;4.75;;
72037;SDS011;59900;50.788;12.904;2023-11-21T08:44:03;11.53;;;4.67;;
72037;SDS011;59900;50.788;12.904;2023-11-21T08:46:32;12.75;;;4.95;;
72037;SDS011;59900;50.788;12.904;2023-11-21T08:48:58;9.75;;;5.20;;
72037;SDS011;59900;50.788;12.904;2023-11-21T08:51:25;10.73;;;5.20;;
72037;SDS011;59900;50.788;12.904;2023-11-21T08:53:50;15.97;;;5.40;;
72037;SDS011;59900;50.788;12.904;2023-11-21T08:56:16;12.65;;;5.35;;
72037;SDS011;59900;50.788;12.904;2023-11-21T08:58:43;14.57;;;6.13;;
72037;SDS011;59900;50.788;12.904;2023-11-21T09:01:08;13.13;;;5.77;;
72037;SDS011;59900;50.788;12.904;2023-11-21T09:03:34;12.10;;;5.10;;
72037;SDS011;59900;50.788;12.904;2023-11-21T09:05:59;15.85;;;5.15;;
72037;SDS011;59900;50.788;12.904;2023-11-21T09:08:25;15.00;;;5.95;;
72037;SDS011;59900;50.788;12.904;2023-11-21T09:10:53;14.57;;;5.88;;
72037;SDS011;59900;50.788;12.904;2023-11-21T09:13:18;10.40;;;5.10;;
72037;SDS011;59900;50.788;12.904;2023-11-21T09:15:43;14.93;;;6.10;;
72037;SDS011;59900;50.788;12.904;2023-11-21T09:18:11;13.53;;;5.00;;
72037;SDS011;59900;50.788;12.904;2023-11-21T09:20:40;11.43;;;5.00;;
72037;SDS011;59900;50.788;12.904;2023-11-21T09:23:05;9.33;;;5.57;;
72037;SDS011;59900;50.788;12.904;2023-11-21T09:25:32;12.70;;;5.07;;
72037;SDS011;59900;50.788;12.904;2023-11-21T09:27:57;10.87;;;4.63;;
72037;SDS011;59900;50.788;12.904;2023-11-21T09:30:23;9.93;;;4.82;;
72037;SDS011;59900;50.788;12.904;2023-11-21T09:32:49;10.38;;;4.82;;
72037;SDS011;59900;50.788;12.904;2023-11-21T09:35:15;9.90;;;4.67;;
72037;SDS011;59900;50.788;12.904;2023-11-21T09:37:40;9.35;;;4.10;;
72037;SDS011;59900;50.788;12.904;2023-11-21T09:40:07;9.63;;;4.00;;
72037;SDS011;59900;50.788;12.904;2023-11-21T09:42:48;9.37;;;4.20;;
72037;SDS011;59900;50.788;12.904;2023-11-21T09:45:21;9.20;;;3.58;;
72037;SDS011;59900;50.788;12.904;2023-11-21T09:47:52;8.27;;;4.05;;
72037;SDS011;59900;50.788;12.904;2023-11-21T09:50:18;11.23;;;4.07;;
72037;SDS011;59900;50.788;12.904;2023-11-21T09:55:46;6.27;;;2.97;;
72037;SDS011;59900;50.788;12.904;2023-11-21T09:58:13;7.00;;;3.42;;
72037;SDS011;59900;50.788;12.904;2023-11-21T10:00:43;7.25;;;3.45;;
72037;SDS011;59900;50.788;12.904;2023-11-21T10:03:11;7.10;;;3.33;;
72037;SDS011;59900;50.788;12.904;2023-11-21T10:05:36;8.57;;;2.73;;
72037;SDS011;59900;50.788;12.904;2023-11-21T10:08:09;5.47;;;2.63;;
72037;SDS011;59900;50.788;12.904;2023-11-21T10:10:35;5.82;;;3.08;;
72037;SDS011;59900;50.788;12.904;2023-11-21T10:13:03;7.45;;;3.47;;
72037;SDS011;59900;50.788;12.904;2023-11-21T10:15:31;6.93;;;2.93;;
72037;SDS011;59900;50.788;12.904;2023-11-21T10:17:59;7.25;;;2.85;;
72037;SDS011;59900;50.788;12.904;2023-11-21T10:20:28;8.55;;;3.30;;
72037;SDS011;59900;50.788;12.904;2023-11-21T10:22:54;7.45;;;2.97;;
72037;SDS011;59900;50.788;12.904;2023-11-21T10:25:21;7.75;;;3.90;;
72037;SDS011;59900;50.788;12.904;2023-11-21T10:27:47;7.53;;;3.30;;
72037;SDS011;59900;50.788;12.904;2023-11-21T10:30:16;6.65;;;3.45;;
72037;SDS011;59900;50.788;12.904;2023-11-21T10:32:42;11.45;;;4.40;;
72037;SDS011;59900;50.788;12.904;2023-11-21T10:35:09;8.73;;;4.00;;
72037;SDS011;59900;50.788;12.904;2023-11-21T10:37:38;8.20;;;3.55;;
72037;SDS011;59900;50.788;12.904;2023-11-21T10:40:08;9.05;;;3.92;;
72037;SDS011;59900;50.788;12.904;2023-11-21T10:42:38;11.38;;;4.45;;
72037;SDS011;59900;50.788;12.904;2023-11-21T10:45:07;9.77;;;4.43;;
72037;SDS011;59900;50.788;12.904;2023-11-21T10:47:39;11.33;;;5.13;;
72037;SDS011;59900;50.788;12.904;2023-11-21T10:50:09;9.82;;;4.55;;
72037;SDS011;59900;50.788;12.904;2023-11-21T10:52:36;9.15;;;4.53;;
72037;SDS011;59900;50.788;12.904;2023-11-21T10:55:12;11.93;;;4.30;;
72037;SDS011;59900;50.788;12.904;2023-11-21T10:57:41;10.05;;;4.80;;
72037;SDS011;59900;50.788;12.904;2023-11-21T11:00:07;9.33;;;4.17;;
72037;SDS011;59900;50.788;12.904;2023-11-21T11:02:33;8.95;;;4.10;;
72037;SDS011;59900;50.788;12.904;2023-11-21T11:05:00;9.20;;;4.13;;
72037;SDS011;59900;50.788;12.904;2023-11-21T11:07:26;9.30;;;4.10;;
72037;SDS011;59900;50.788;12.904;2023-11-21T11:09:55;17.50;;;4.88;;
72037;SDS011;59900;50.788;12.904;2023-11-21T11:12:24;13.48;;;5.57;;
72037;SDS011;59900;50.788;12.904;2023-11-21T11:14:49;43.80;;;6.93;;
72037;SDS011;59900;50.788;12.904;2023-11-21T11:17:17;103.82;;;7.22;;
72037;SDS011;59900;50.788;12.904;2023-11-21T11:19:45;106.10;;;9.00;;
72037;SDS011;59900;50.788;12.904;2023-11-21T11:22:29;114.50;;;7.10;;
72037;SDS011;59900;50.788;12.904;2023-11-21T11:25:06;73.47;;;6.70;;
72037;SDS011;59900;50.788;12.904;2023-11-21T11:27:48;29.90;;;5.75;;
72037;SDS011;59900;50.788;12.904;2023-11-21T11:30:27;20.58;;;4.40;;
72037;SDS011;59900;50.788;12.904;2023-11-21T11:33:07;12.33;;;3.93;;
72037;SDS011;59900;50.788;12.904;2023-11-21T11:38:36;9.73;;;3.70;;
72037;SDS011;59900;50.788;12.904;2023-11-21T11:41:02;9.45;;;4.00;;
72037;SDS011;59900;50.788;12.904;2023-11-21T11:43:29;8.20;;;3.70;;
72037;SDS011;59900;50.788;12.904;2023-11-21T11:45:57;9.27;;;4.07;;
72037;SDS011;59900;50.788;12.904;2023-11-21T11:48:24;8.63;;;3.65;;
72037;SDS011;59900;50.788;12.904;2023-11-21T11:53:40;10.57;;;3.92;;
72037;SDS011;59900;50.788;12.904;2023-11-21T11:56:19;9.57;;;4.10;;
72037;SDS011;59900;50.788;12.904;2023-11-21T11:58:48;12.88;;;5.10;;
72037;SDS011;59900;50.788;12.904;2023-11-21T12:01:18;17.55;;;4.57;;
72037;SDS011;59900;50.788;12.904;2023-11-21T12:03:44;14.18;;;4.10;;
72037;SDS011;59900;50.788;12.904;2023-11-21T12:06:35;34.30;;;4.65;;
72037;SDS011;59900;50.788;12.904;2023-11-21T12:09:01;21.90;;;4.00;;
72037;SDS011;59900;50.788;12.904;2023-11-21T12:11:30;13.90;;;4.30;;
72037;SDS011;59900;50.788;12.904;2023-11-21T12:13:56;10.27;;;4.28;;
72037;SDS011;59900;50.788;12.904;2023-11-21T12:16:21;17.37;;;4.03;;
72037;SDS011;59900;50.788;12.904;2023-11-21T12:18:48;8.63;;;3.67;;
72037;SDS011;59900;50.788;12.904;2023-11-21T12:21:13;7.80;;;3.27;;
72037;SDS011;59900;50.788;12.904;2023-11-21T12:23:39;12.70;;;3.60;;
72037;SDS011;59900;50.788;12.904;2023-11-21T12:26:05;7.28;;;3.30;;
72037;SDS011;59900;50.788;12.904;2023-11-21T12:28:31;7.57;;;3.27;;
72037;SDS011;59900;50.788;12.904;2023-11-21T12:30:56;7.93;;;3.50;;
72037;SDS011;59900;50.788;12.904;2023-11-21T12:33:22;9.20;;;3.80;;
72037;SDS011;59900;50.788;12.904;2023-11-21T12:35:47;7.25;;;3.22;;
72037;SDS011;59900;50.788;12.904;2023-11-21T12:38:13;9.43;;;3.60;;
72037;SDS011;59900;50.788;12.904;2023-11-21T12:40:38;23.47;;;4.07;;
72037;SDS011;59900;50.788;12.904;2023-11-21T12:43:04;14.77;;;4.00;;
72037;SDS011;59900;50.788;12.904;2023-11-21T12:45:32;8.07;;;3.20;;
72037;SDS011;59900;50.788;12.904;2023-11-21T12:48:02;11.68;;;3.53;;
72037;SDS011;59900;50.788;12.904;2023-11-21T12:50:33;11.23;;;3.53;;
72037;SDS011;59900;50.788;12.904;2023-11-21T12:53:01;10.50;;;3.83;;
72037;SDS011;59900;50.788;12.904;2023-11-21T12:55:31;11.75;;;3.55;;
72037;SDS011;59900;50.788;12.904;2023-11-21T12:57:58;8.18;;;3.38;;
72037;SDS011;59900;50.788;12.904;2023-11-21T13:00:34;11.20;;;4.13;;
72037;SDS011;59900;50.788;12.904;2023-11-21T13:03:04;14.17;;;4.77;;
72037;SDS011;59900;50.788;12.904;2023-11-21T13:05:32;10.82;;;4.18;;
72037;SDS011;59900;50.788;12.904;2023-11-21T13:08:04;9.27;;;3.83;;
72037;SDS011;59900;50.788;12.904;2023-11-21T13:10:37;8.55;;;3.65;;
72037;SDS011;59900;50.788;12.904;2023-11-21T13:13:09;9.02;;;3.85;;
72037;SDS011;59900;50.788;12.904;2023-11-21T13:15:46;8.37;;;2.70;;
72037;SDS011;59900;50.788;12.904;2023-11-21T13:18:13;7.88;;;3.45;;
72037;SDS011;59900;50.788;12.904;2023-11-21T13:20:39;7.90;;;3.50;;
72037;SDS011;59900;50.788;12.904;2023-11-21T13:23:07;6.80;;;2.80;;
72037;SDS011;59900;50.788;12.904;2023-11-21T13:25:33;7.37;;;3.47;;
72037;SDS011;59900;50.788;12.904;2023-11-21T13:28:00;9.85;;;3.22;;
72037;SDS011;59900;50.788;12.904;2023-11-21T13:30:28;8.38;;;3.47;;
72037;SDS011;59900;50.788;12.904;2023-11-21T13:33:02;8.88;;;3.72;;
72037;SDS011;59900;50.788;12.904;2023-11-21T13:35:31;9.60;;;3.65;;
72037;SDS011;59900;50.788;12.904;2023-11-21T13:38:04;8.43;;;3.17;;
72037;SDS011;59900;50.788;12.904;2023-11-21T13:40:32;8.55;;;3.20;;
72037;SDS011;59900;50.788;12.904;2023-11-21T13:43:04;8.90;;;3.08;;
72037;SDS011;59900;50.788;12.904;2023-11-21T13:45:30;8.53;;;3.53;;
72037;SDS011;59900;50.788;12.904;2023-11-21T13:47:56;9.15;;;3.45;;
72037;SDS011;59900;50.788;12.904;2023-11-21T13:50:24;11.13;;;3.80;;
72037;SDS011;59900;50.788;12.904;2023-11-21T13:52:57;9.00;;;3.60;;
72037;SDS011;59900;50.788;12.904;2023-11-21T13:55:28;6.85;;;3.05;;
72037;SDS011;59900;50.788;12.904;2023-11-21T13:57:54;8.37;;;3.10;;
72037;SDS011;59900;50.788;12.904;2023-11-21T14:00:19;8.13;;;3.57;;
72037;SDS011;59900;50.788;12.904;2023-11-21T14:03:03;7.75;;;3.35;;
72037;SDS011;59900;50.788;12.904;2023-11-21T14:05:33;8.07;;;3.28;;
72037;SDS011;59900;50.788;12.904;2023-11-21T14:07:59;7.97;;;3.60;;
72037;SDS011;59900;50.788;12.904;2023-11-21T14:10:29;9.68;;;3.47;;
72037;SDS011;59900;50.788;12.904;2023-11-21T14:13:05;9.30;;;3.30;;
72037;SDS011;59900;50.788;12.904;2023-11-21T14:15:31;8.27;;;3.42;;
72037;SDS011;59900;50.788;12.904;2023-11-21T14:17:58;9.20;;;3.80;;
72037;SDS011;59900;50.788;12.904;2023-11-21T14:20:25;7.87;;;3.30;;
72037;SDS011;59900;50.788;12.904;2023-11-21T14:22:50;8.70;;;3.30;;
72037;SDS011;59900;50.788;12.904;2023-11-21T14:25:16;7.10;;;2.80;;
72037;SDS011;59900;50.788;12.904;2023-11-21T14:27:42;7.72;;;3.60;;
72037;SDS011;59900;50.788;12.904;2023-11-21T14:30:08;6.80;;;2.80;;
72037;SDS011;59900;50.788;12.904;2023-11-21T14:32:33;8.47;;;3.80;;
72037;SDS011;59900;50.788;12.904;2023-11-21T14:34:59;8.20;;;3.53;;
72037;SDS011;59900;50.788;12.904;2023-11-21T14:37:25;7.93;;;3.77;;